sensor_id;sensor_type;location;lat;lon;timestamp;temperature;humidity
20035;DHT22;10178;48.034;9.800;2022-12-24T00:00:24;10.20;99.90
20035;DHT22;10178;48.034;9.800;2022-12-24T00:02:50;10.30;99.90
20035;DHT22;10178;48.034;9.800;2022-12-24T00:05:15;10.20;99.90
20035;DHT22;10178;48.034;9.800;2022-12-24T00:07:41;10.20;99.90
20035;DHT22;10178;48.034;9.800;2022-12-24T00:10:08;10.20;99.90
20035;DHT22;10178;48.034;9.800;2022-12-24T00:12:34;10.20;99.90
20035;DHT22;10178;48.034;9.800;2022-12-24T00:15:00;10.10;99.90
20035;DHT22;10178;48.034;9.800;2022-12-24T00:17:25;10.10;99.90
20035;DHT22;10178;48.034;9.800;2022-12-24T00:19:51;10.10;99.90
20035;DHT22;10178;48.034;9.800;2022-12-24T00:22:16;10.10;99.90
20035;DHT22;10178;48.034;9.800;2022-12-24T00:24:42;10.20;99.90
20035;DHT22;10178;48.034;9.800;2022-12-24T00:27:07;10.20;99.90
20035;DHT22;10178;48.034;9.800;2022-12-24T00:29:33;10.30;99.90
20035;DHT22;10178;48.034;9.800;2022-12-24T00:31:59;10.30;99.90
20035;DHT22;10178;48.034;9.800;2022-12-24T00:34:25;10.30;99.90
20035;DHT22;10178;48.034;9.800;2022-12-24T00:36:51;10.30;99.90
20035;DHT22;10178;48.034;9.800;2022-12-24T00:39:17;10.20;99.90
20035;DHT22;10178;48.034;9.800;2022-12-24T00:41:43;10.20;99.90
20035;DHT22;10178;48.034;9.800;2022-12-24T00:44:09;10.20;99.90
20035;DHT22;10178;48.034;9.800;2022-12-24T00:46:37;10.20;99.90
20035;DHT22;10178;48.034;9.800;2022-12-24T00:49:03;10.20;99.90
20035;DHT22;10178;48.034;9.800;2022-12-24T00:51:29;10.20;99.90
20035;DHT22;10178;48.034;9.800;2022-12-24T00:53:55;10.20;99.90
20035;DHT22;10178;48.034;9.800;2022-12-24T00:56:21;10.20;99.90
20035;DHT22;10178;48.034;9.800;2022-12-24T00:58:47;10.10;99.90
20035;DHT22;10178;48.034;9.800;2022-12-24T01:01:13;10.10;99.90
20035;DHT22;10178;48.034;9.800;2022-12-24T01:03:39;10.10;99.90
20035;DHT22;10178;48.034;9.800;2022-12-24T01:06:10;10.00;99.90
20035;DHT22;10178;48.034;9.800;2022-12-24T01:08:37;10.00;99.90
20035;DHT22;10178;48.034;9.800;2022-12-24T01:11:04;10.00;99.90
20035;DHT22;10178;48.034;9.800;2022-12-24T01:13:30;10.00;99.90
20035;DHT22;10178;48.034;9.800;2022-12-24T01:15:56;9.90;99.90
20035;DHT22;10178;48.034;9.800;2022-12-24T01:18:22;10.00;99.90
20035;DHT22;10178;48.034;9.800;2022-12-24T01:20:58;10.00;99.90
20035;DHT22;10178;48.034;9.800;2022-12-24T01:23:24;9.90;99.90
20035;DHT22;10178;48.034;9.800;2022-12-24T01:25:50;9.90;99.90
20035;DHT22;10178;48.034;9.800;2022-12-24T01:28:16;10.00;99.90
20035;DHT22;10178;48.034;9.800;2022-12-24T01:30:42;9.90;99.90
20035;DHT22;10178;48.034;9.800;2022-12-24T01:33:07;9.90;99.90
20035;DHT22;10178;48.034;9.800;2022-12-24T01:35:33;9.90;99.90
20035;DHT22;10178;48.034;9.800;2022-12-24T01:37:59;9.90;99.90
20035;DHT22;10178;48.034;9.800;2022-12-24T01:40:26;9.90;99.90
20035;DHT22;10178;48.034;9.800;2022-12-24T01:43:16;9.90;99.90
20035;DHT22;10178;48.034;9.800;2022-12-24T01:46:03;10.00;99.90
20035;DHT22;10178;48.034;9.800;2022-12-24T01:51:29;9.90;99.90
20035;DHT22;10178;48.034;9.800;2022-12-24T01:54:07;9.80;99.90
20035;DHT22;10178;48.034;9.800;2022-12-24T01:56:35;9.90;99.90
20035;DHT22;10178;48.034;9.800;2022-12-24T01:59:05;9.80;99.90
20035;DHT22;10178;48.034;9.800;2022-12-24T02:01:32;9.80;99.90
20035;DHT22;10178;48.034;9.800;2022-12-24T02:03:59;9.80;99.90
20035;DHT22;10178;48.034;9.800;2022-12-24T02:06:26;9.80;99.90
20035;DHT22;10178;48.034;9.800;2022-12-24T02:08:52;9.70;99.90
20035;DHT22;10178;48.034;9.800;2022-12-24T02:11:19;9.70;99.90
20035;DHT22;10178;48.034;9.800;2022-12-24T02:13:49;9.70;99.90
20035;DHT22;10178;48.034;9.800;2022-12-24T02:27:24;9.80;99.90
20035;DHT22;10178;48.034;9.800;2022-12-24T02:32:23;9.80;99.90
20035;DHT22;10178;48.034;9.800;2022-12-24T02:35:05;9.80;99.90
20035;DHT22;10178;48.034;9.800;2022-12-24T02:37:36;9.80;99.90
20035;DHT22;10178;48.034;9.800;2022-12-24T02:40:08;9.90;99.90
20035;DHT22;10178;48.034;9.800;2022-12-24T02:42:40;9.80;99.90
20035;DHT22;10178;48.034;9.800;2022-12-24T02:45:09;9.80;99.90
20035;DHT22;10178;48.034;9.800;2022-12-24T02:47:37;9.80;99.90
20035;DHT22;10178;48.034;9.800;2022-12-24T02:50:06;9.80;99.90
20035;DHT22;10178;48.034;9.800;2022-12-24T02:52:38;9.90;99.90
20035;DHT22;10178;48.034;9.800;2022-12-24T02:55:11;9.90;99.90
20035;DHT22;10178;48.034;9.800;2022-12-24T02:58:47;9.90;99.90
20035;DHT22;10178;48.034;9.800;2022-12-24T03:03:32;9.90;99.90
20035;DHT22;10178;48.034;9.800;2022-12-24T03:08:58;9.80;99.90
20035;DHT22;10178;48.034;9.800;2022-12-24T03:11:25;9.80;99.90
20035;DHT22;10178;48.034;9.800;2022-12-24T03:13:52;9.80;99.90
20035;DHT22;10178;48.034;9.800;2022-12-24T03:16:23;9.80;99.90
20035;DHT22;10178;48.034;9.800;2022-12-24T03:18:52;9.80;99.90
20035;DHT22;10178;48.034;9.800;2022-12-24T03:21:31;9.80;99.90
20035;DHT22;10178;48.034;9.800;2022-12-24T03:23:59;9.80;99.90
20035;DHT22;10178;48.034;9.800;2022-12-24T03:26:26;9.80;99.90
20035;DHT22;10178;48.034;9.800;2022-12-24T03:28:53;9.80;99.90
20035;DHT22;10178;48.034;9.800;2022-12-24T03:31:19;9.80;99.90
20035;DHT22;10178;48.034;9.800;2022-12-24T03:33:46;9.80;99.90
20035;DHT22;10178;48.034;9.800;2022-12-24T03:36:11;9.80;99.90
20035;DHT22;10178;48.034;9.800;2022-12-24T03:38:38;9.80;99.90
20035;DHT22;10178;48.034;9.800;2022-12-24T03:41:03;9.80;99.90
20035;DHT22;10178;48.034;9.800;2022-12-24T03:43:29;9.80;99.90
20035;DHT22;10178;48.034;9.800;2022-12-24T03:45:55;9.80;99.90
20035;DHT22;10178;48.034;9.800;2022-12-24T03:48:21;9.90;99.90
20035;DHT22;10178;48.034;9.800;2022-12-24T03:50:46;9.90;99.90
20035;DHT22;10178;48.034;9.800;2022-12-24T03:53:12;9.90;99.90
20035;DHT22;10178;48.034;9.800;2022-12-24T03:55:38;9.80;99.90
20035;DHT22;10178;48.034;9.800;2022-12-24T03:58:04;9.80;99.90
20035;DHT22;10178;48.034;9.800;2022-12-24T04:00:30;9.80;99.90
20035;DHT22;10178;48.034;9.800;2022-12-24T04:02:55;9.80;99.90
20035;DHT22;10178;48.034;9.800;2022-12-24T04:05:21;9.80;99.90
20035;DHT22;10178;48.034;9.800;2022-12-24T04:07:47;9.80;99.90
20035;DHT22;10178;48.034;9.800;2022-12-24T04:10:14;9.90;99.90
20035;DHT22;10178;48.034;9.800;2022-12-24T04:12:39;9.80;99.90
20035;DHT22;10178;48.034;9.800;2022-12-24T04:15:06;9.80;99.90
20035;DHT22;10178;48.034;9.800;2022-12-24T04:17:32;9.80;99.90
20035;DHT22;10178;48.034;9.800;2022-12-24T04:19:58;9.70;99.90
20035;DHT22;10178;48.034;9.800;2022-12-24T04:22:23;9.70;99.90
20035;DHT22;10178;48.034;9.800;2022-12-24T04:24:49;9.70;99.90
20035;DHT22;10178;48.034;9.800;2022-12-24T04:27:15;9.70;99.90
20035;DHT22;10178;48.034;9.800;2022-12-24T04:29:41;9.80;99.90
20035;DHT22;10178;48.034;9.800;2022-12-24T04:32:06;9.70;99.90
20035;DHT22;10178;48.034;9.800;2022-12-24T04:34:32;9.70;99.90
20035;DHT22;10178;48.034;9.800;2022-12-24T04:36:58;9.80;99.90
20035;DHT22;10178;48.034;9.800;2022-12-24T04:39:23;9.70;99.90
20035;DHT22;10178;48.034;9.800;2022-12-24T04:41:49;9.70;99.90
20035;DHT22;10178;48.034;9.800;2022-12-24T04:44:14;9.70;99.90
20035;DHT22;10178;48.034;9.800;2022-12-24T04:46:40;9.70;99.90
20035;DHT22;10178;48.034;9.800;2022-12-24T04:49:07;9.70;99.90
20035;DHT22;10178;48.034;9.800;2022-12-24T04:51:33;9.70;99.90
20035;DHT22;10178;48.034;9.800;2022-12-24T04:53:59;9.60;99.90
20035;DHT22;10178;48.034;9.800;2022-12-24T04:56:27;9.70;99.90
20035;DHT22;10178;48.034;9.800;2022-12-24T04:58:53;9.60;99.90
20035;DHT22;10178;48.034;9.800;2022-12-24T05:01:22;9.60;99.90
20035;DHT22;10178;48.034;9.800;2022-12-24T05:03:49;9.60;99.90
20035;DHT22;10178;48.034;9.800;2022-12-24T05:06:18;9.60;99.90
20035;DHT22;10178;48.034;9.800;2022-12-24T05:08:44;9.60;99.90
20035;DHT22;10178;48.034;9.800;2022-12-24T05:11:10;9.70;99.90
20035;DHT22;10178;48.034;9.800;2022-12-24T05:13:39;9.60;99.90
20035;DHT22;10178;48.034;9.800;2022-12-24T05:16:06;9.70;99.90
20035;DHT22;10178;48.034;9.800;2022-12-24T05:18:31;9.60;99.90
20035;DHT22;10178;48.034;9.800;2022-12-24T05:20:57;9.60;99.90
20035;DHT22;10178;48.034;9.800;2022-12-24T05:23:24;9.60;99.90
20035;DHT22;10178;48.034;9.800;2022-12-24T05:26:15;9.60;99.90
20035;DHT22;10178;48.034;9.800;2022-12-24T05:28:51;9.60;99.90
20035;DHT22;10178;48.034;9.800;2022-12-24T05:31:18;9.60;99.90
20035;DHT22;10178;48.034;9.800;2022-12-24T05:33:44;9.60;99.90
20035;DHT22;10178;48.034;9.800;2022-12-24T05:36:10;9.60;99.90
20035;DHT22;10178;48.034;9.800;2022-12-24T05:38:35;9.60;99.90
20035;DHT22;10178;48.034;9.800;2022-12-24T05:41:01;9.60;99.90
20035;DHT22;10178;48.034;9.800;2022-12-24T05:43:27;9.60;99.90
20035;DHT22;10178;48.034;9.800;2022-12-24T05:46:04;9.50;99.90
20035;DHT22;10178;48.034;9.800;2022-12-24T05:48:30;9.50;99.90
20035;DHT22;10178;48.034;9.800;2022-12-24T05:50:56;9.40;99.90
20035;DHT22;10178;48.034;9.800;2022-12-24T05:53:22;9.40;99.90
20035;DHT22;10178;48.034;9.800;2022-12-24T05:55:48;9.40;99.90
20035;DHT22;10178;48.034;9.800;2022-12-24T05:58:14;9.50;99.90
20035;DHT22;10178;48.034;9.800;2022-12-24T06:00:40;9.40;99.90
20035;DHT22;10178;48.034;9.800;2022-12-24T06:03:05;9.50;99.90
20035;DHT22;10178;48.034;9.800;2022-12-24T06:05:31;9.40;99.90
20035;DHT22;10178;48.034;9.800;2022-12-24T06:07:56;9.40;99.90
20035;DHT22;10178;48.034;9.800;2022-12-24T06:10:22;9.50;99.90
20035;DHT22;10178;48.034;9.800;2022-12-24T06:12:48;9.60;99.90
20035;DHT22;10178;48.034;9.800;2022-12-24T06:15:14;9.50;99.90
20035;DHT22;10178;48.034;9.800;2022-12-24T06:17:39;9.60;99.90
20035;DHT22;10178;48.034;9.800;2022-12-24T06:20:05;9.50;99.90
20035;DHT22;10178;48.034;9.800;2022-12-24T06:22:31;9.50;99.90
20035;DHT22;10178;48.034;9.800;2022-12-24T06:24:57;9.40;99.90
20035;DHT22;10178;48.034;9.800;2022-12-24T06:27:22;9.40;99.90
20035;DHT22;10178;48.034;9.800;2022-12-24T06:29:48;9.30;99.90
20035;DHT22;10178;48.034;9.800;2022-12-24T06:32:14;9.40;99.90
20035;DHT22;10178;48.034;9.800;2022-12-24T06:34:39;9.30;99.90
20035;DHT22;10178;48.034;9.800;2022-12-24T06:37:05;9.30;99.90
20035;DHT22;10178;48.034;9.800;2022-12-24T06:39:31;9.30;99.90
20035;DHT22;10178;48.034;9.800;2022-12-24T06:41:56;9.40;99.90
20035;DHT22;10178;48.034;9.800;2022-12-24T06:44:22;9.40;99.90
20035;DHT22;10178;48.034;9.800;2022-12-24T06:46:47;9.30;99.90
20035;DHT22;10178;48.034;9.800;2022-12-24T06:49:13;9.30;99.90
20035;DHT22;10178;48.034;9.800;2022-12-24T06:51:39;9.30;99.90
20035;DHT22;10178;48.034;9.800;2022-12-24T06:54:04;9.20;99.90
20035;DHT22;10178;48.034;9.800;2022-12-24T06:56:30;9.20;99.90
20035;DHT22;10178;48.034;9.800;2022-12-24T06:58:56;9.20;99.90
20035;DHT22;10178;48.034;9.800;2022-12-24T07:01:21;9.30;99.90
20035;DHT22;10178;48.034;9.800;2022-12-24T07:03:49;9.30;99.90
20035;DHT22;10178;48.034;9.800;2022-12-24T07:06:21;9.20;99.90
20035;DHT22;10178;48.034;9.800;2022-12-24T07:08:48;9.20;99.90
20035;DHT22;10178;48.034;9.800;2022-12-24T07:11:14;9.30;99.90
20035;DHT22;10178;48.034;9.800;2022-12-24T07:13:39;9.30;99.90
20035;DHT22;10178;48.034;9.800;2022-12-24T07:16:05;9.20;99.90
20035;DHT22;10178;48.034;9.800;2022-12-24T07:18:31;9.20;99.90
20035;DHT22;10178;48.034;9.800;2022-12-24T07:20:57;9.20;99.90
20035;DHT22;10178;48.034;9.800;2022-12-24T07:23:23;9.10;99.90
20035;DHT22;10178;48.034;9.800;2022-12-24T07:25:48;9.10;99.90
20035;DHT22;10178;48.034;9.800;2022-12-24T07:28:14;9.20;99.90
20035;DHT22;10178;48.034;9.800;2022-12-24T07:30:40;9.30;99.90
20035;DHT22;10178;48.034;9.800;2022-12-24T07:33:06;9.10;99.90
20035;DHT22;10178;48.034;9.800;2022-12-24T07:35:32;9.10;99.90
20035;DHT22;10178;48.034;9.800;2022-12-24T07:37:58;9.10;99.90
20035;DHT22;10178;48.034;9.800;2022-12-24T07:40:23;9.10;99.90
20035;DHT22;10178;48.034;9.800;2022-12-24T07:42:49;9.10;99.90
20035;DHT22;10178;48.034;9.800;2022-12-24T07:45:15;9.00;99.90
20035;DHT22;10178;48.034;9.800;2022-12-24T07:47:40;9.00;99.90
20035;DHT22;10178;48.034;9.800;2022-12-24T07:50:06;9.00;99.90
20035;DHT22;10178;48.034;9.800;2022-12-24T07:52:32;8.90;99.90
20035;DHT22;10178;48.034;9.800;2022-12-24T07:54:58;8.90;99.90
20035;DHT22;10178;48.034;9.800;2022-12-24T07:57:23;8.90;99.90
20035;DHT22;10178;48.034;9.800;2022-12-24T07:59:49;8.80;99.90
20035;DHT22;10178;48.034;9.800;2022-12-24T08:02:14;8.80;99.90
20035;DHT22;10178;48.034;9.800;2022-12-24T08:04:40;8.90;99.90
20035;DHT22;10178;48.034;9.800;2022-12-24T08:07:06;8.80;99.90
20035;DHT22;10178;48.034;9.800;2022-12-24T08:09:33;8.80;99.90
20035;DHT22;10178;48.034;9.800;2022-12-24T08:11:59;8.70;99.90
20035;DHT22;10178;48.034;9.800;2022-12-24T08:14:27;8.70;99.90
20035;DHT22;10178;48.034;9.800;2022-12-24T08:16:52;8.60;99.90
20035;DHT22;10178;48.034;9.800;2022-12-24T08:19:18;8.60;99.90
20035;DHT22;10178;48.034;9.800;2022-12-24T08:21:44;8.70;99.90
20035;DHT22;10178;48.034;9.800;2022-12-24T08:24:09;8.60;99.90
20035;DHT22;10178;48.034;9.800;2022-12-24T08:26:35;8.80;99.90
20035;DHT22;10178;48.034;9.800;2022-12-24T08:29:01;8.80;99.90
20035;DHT22;10178;48.034;9.800;2022-12-24T08:31:27;8.90;99.90
20035;DHT22;10178;48.034;9.800;2022-12-24T08:33:52;8.80;99.90
20035;DHT22;10178;48.034;9.800;2022-12-24T08:36:18;8.70;99.90
20035;DHT22;10178;48.034;9.800;2022-12-24T08:38:44;8.70;99.90
20035;DHT22;10178;48.034;9.800;2022-12-24T08:41:09;8.80;99.90
20035;DHT22;10178;48.034;9.800;2022-12-24T08:43:35;8.80;99.90
20035;DHT22;10178;48.034;9.800;2022-12-24T08:46:02;8.80;99.90
20035;DHT22;10178;48.034;9.800;2022-12-24T08:48:29;8.90;99.90
20035;DHT22;10178;48.034;9.800;2022-12-24T08:50:55;8.80;99.90
20035;DHT22;10178;48.034;9.800;2022-12-24T08:53:20;8.80;99.90
20035;DHT22;10178;48.034;9.800;2022-12-24T08:55:46;8.80;99.90
20035;DHT22;10178;48.034;9.800;2022-12-24T08:58:12;8.90;99.90
20035;DHT22;10178;48.034;9.800;2022-12-24T09:00:38;8.90;99.90
20035;DHT22;10178;48.034;9.800;2022-12-24T09:03:04;8.70;99.90
20035;DHT22;10178;48.034;9.800;2022-12-24T09:05:29;8.70;99.90
20035;DHT22;10178;48.034;9.800;2022-12-24T09:07:55;8.70;99.90
20035;DHT22;10178;48.034;9.800;2022-12-24T09:10:21;8.70;99.90
20035;DHT22;10178;48.034;9.800;2022-12-24T09:12:47;8.70;99.90
20035;DHT22;10178;48.034;9.800;2022-12-24T09:15:12;8.60;99.90
20035;DHT22;10178;48.034;9.800;2022-12-24T09:17:38;8.60;99.90
20035;DHT22;10178;48.034;9.800;2022-12-24T09:20:05;8.70;99.90
20035;DHT22;10178;48.034;9.800;2022-12-24T09:22:33;8.70;99.90
20035;DHT22;10178;48.034;9.800;2022-12-24T09:24:59;8.60;99.90
20035;DHT22;10178;48.034;9.800;2022-12-24T09:27:25;8.60;99.90
20035;DHT22;10178;48.034;9.800;2022-12-24T09:29:50;8.60;99.90
20035;DHT22;10178;48.034;9.800;2022-12-24T09:32:16;8.60;99.90
20035;DHT22;10178;48.034;9.800;2022-12-24T09:34:42;8.50;99.90
20035;DHT22;10178;48.034;9.800;2022-12-24T09:37:07;8.50;99.90
20035;DHT22;10178;48.034;9.800;2022-12-24T09:39:33;8.40;99.90
20035;DHT22;10178;48.034;9.800;2022-12-24T09:44:53;8.60;99.90
20035;DHT22;10178;48.034;9.800;2022-12-24T09:47:38;8.50;99.90
20035;DHT22;10178;48.034;9.800;2022-12-24T09:52:52;8.50;99.90
20035;DHT22;10178;48.034;9.800;2022-12-24T09:55:49;8.60;99.90
20035;DHT22;10178;48.034;9.800;2022-12-24T09:58:24;8.50;99.90
20035;DHT22;10178;48.034;9.800;2022-12-24T10:00:52;8.50;99.90
20035;DHT22;10178;48.034;9.800;2022-12-24T10:03:18;8.50;99.90
20035;DHT22;10178;48.034;9.800;2022-12-24T10:06:03;8.50;99.90
20035;DHT22;10178;48.034;9.800;2022-12-24T10:16:27;8.60;99.90
20035;DHT22;10178;48.034;9.800;2022-12-24T10:24:53;8.60;99.90
20035;DHT22;10178;48.034;9.800;2022-12-24T10:27:28;8.70;99.90
20035;DHT22;10178;48.034;9.800;2022-12-24T10:30:03;8.70;99.90
20035;DHT22;10178;48.034;9.800;2022-12-24T10:32:31;8.70;99.90
20035;DHT22;10178;48.034;9.800;2022-12-24T10:34:59;8.70;99.90
20035;DHT22;10178;48.034;9.800;2022-12-24T10:37:27;8.70;99.90
20035;DHT22;10178;48.034;9.800;2022-12-24T10:39:54;8.60;99.90
20035;DHT22;10178;48.034;9.800;2022-12-24T10:42:22;8.60;99.90
20035;DHT22;10178;48.034;9.800;2022-12-24T10:44:53;8.60;99.90
20035;DHT22;10178;48.034;9.800;2022-12-24T10:47:20;8.60;99.90
20035;DHT22;10178;48.034;9.800;2022-12-24T10:49:54;8.50;99.90
20035;DHT22;10178;48.034;9.800;2022-12-24T10:52:28;8.50;99.90
20035;DHT22;10178;48.034;9.800;2022-12-24T10:57:31;8.60;99.90
20035;DHT22;10178;48.034;9.800;2022-12-24T10:59:56;8.60;99.90
20035;DHT22;10178;48.034;9.800;2022-12-24T11:02:33;8.60;99.90
20035;DHT22;10178;48.034;9.800;2022-12-24T11:05:01;8.70;99.90
20035;DHT22;10178;48.034;9.800;2022-12-24T11:07:29;8.80;99.90
20035;DHT22;10178;48.034;9.800;2022-12-24T11:10:01;8.80;99.90
20035;DHT22;10178;48.034;9.800;2022-12-24T11:12:34;8.90;99.90
20035;DHT22;10178;48.034;9.800;2022-12-24T11:17:32;8.80;99.90
20035;DHT22;10178;48.034;9.800;2022-12-24T11:19:58;8.80;99.90
20035;DHT22;10178;48.034;9.800;2022-12-24T11:22:27;8.80;99.90
20035;DHT22;10178;48.034;9.800;2022-12-24T11:27:44;8.70;99.90
20035;DHT22;10178;48.034;9.800;2022-12-24T11:32:44;8.80;99.90
20035;DHT22;10178;48.034;9.800;2022-12-24T11:35:21;8.80;99.90
20035;DHT22;10178;48.034;9.800;2022-12-24T11:37:48;8.90;99.90
20035;DHT22;10178;48.034;9.800;2022-12-24T11:40:35;9.00;99.90
20035;DHT22;10178;48.034;9.800;2022-12-24T11:43:03;8.80;99.90
20035;DHT22;10178;48.034;9.800;2022-12-24T11:45:30;8.80;99.90
20035;DHT22;10178;48.034;9.800;2022-12-24T11:47:57;9.00;99.90
20035;DHT22;10178;48.034;9.800;2022-12-24T11:50:34;8.90;99.90
20035;DHT22;10178;48.034;9.800;2022-12-24T11:58:30;8.90;99.90
20035;DHT22;10178;48.034;9.800;2022-12-24T12:01:20;8.90;99.90
20035;DHT22;10178;48.034;9.800;2022-12-24T12:03:52;8.90;99.90
20035;DHT22;10178;48.034;9.800;2022-12-24T12:06:53;8.90;99.90
20035;DHT22;10178;48.034;9.800;2022-12-24T12:09:31;8.80;99.90
20035;DHT22;10178;48.034;9.800;2022-12-24T12:12:01;8.70;99.90
20035;DHT22;10178;48.034;9.800;2022-12-24T12:14:36;8.70;99.90
20035;DHT22;10178;48.034;9.800;2022-12-24T12:17:28;8.70;99.90
20035;DHT22;10178;48.034;9.800;2022-12-24T12:22:40;8.80;99.90
20035;DHT22;10178;48.034;9.800;2022-12-24T12:25:17;8.80;99.90
20035;DHT22;10178;48.034;9.800;2022-12-24T12:27:47;8.80;99.90
20035;DHT22;10178;48.034;9.800;2022-12-24T12:30:16;8.90;99.90
20035;DHT22;10178;48.034;9.800;2022-12-24T12:35:29;8.70;99.90
20035;DHT22;10178;48.034;9.800;2022-12-24T12:38:08;8.70;99.90
20035;DHT22;10178;48.034;9.800;2022-12-24T12:41:00;8.90;99.90
20035;DHT22;10178;48.034;9.800;2022-12-24T12:55:17;8.80;99.90
20035;DHT22;10178;48.034;9.800;2022-12-24T12:57:47;8.80;99.90
20035;DHT22;10178;48.034;9.800;2022-12-24T13:00:17;8.80;99.90
20035;DHT22;10178;48.034;9.800;2022-12-24T13:05:48;9.00;99.90
20035;DHT22;10178;48.034;9.800;2022-12-24T13:21:45;8.60;99.90
20035;DHT22;10178;48.034;9.800;2022-12-24T13:26:42;8.60;99.90
20035;DHT22;10178;48.034;9.800;2022-12-24T13:29:40;8.60;99.90
20035;DHT22;10178;48.034;9.800;2022-12-24T13:35:03;8.60;99.90
20035;DHT22;10178;48.034;9.800;2022-12-24T13:37:34;8.60;99.90
20035;DHT22;10178;48.034;9.800;2022-12-24T13:43:06;8.80;99.90
20035;DHT22;10178;48.034;9.800;2022-12-24T13:50:52;8.80;99.90
20035;DHT22;10178;48.034;9.800;2022-12-24T13:58:39;8.80;99.90
20035;DHT22;10178;48.034;9.800;2022-12-24T14:01:32;8.60;99.90
20035;DHT22;10178;48.034;9.800;2022-12-24T14:04:00;8.60;99.90
20035;DHT22;10178;48.034;9.800;2022-12-24T14:06:36;8.50;99.90
20035;DHT22;10178;48.034;9.800;2022-12-24T14:09:10;8.40;99.90
20035;DHT22;10178;48.034;9.800;2022-12-24T14:14:29;8.40;99.90
20035;DHT22;10178;48.034;9.800;2022-12-24T14:19:59;8.20;99.90
20035;DHT22;10178;48.034;9.800;2022-12-24T14:22:34;8.20;99.90
20035;DHT22;10178;48.034;9.800;2022-12-24T14:30:29;8.30;99.90
20035;DHT22;10178;48.034;9.800;2022-12-24T14:32:55;8.30;99.90
20035;DHT22;10178;48.034;9.800;2022-12-24T14:35:27;8.50;99.90
20035;DHT22;10178;48.034;9.800;2022-12-24T14:38:03;8.50;99.90
20035;DHT22;10178;48.034;9.800;2022-12-24T14:40:31;8.50;99.90
20035;DHT22;10178;48.034;9.800;2022-12-24T14:51:41;8.40;99.90
20035;DHT22;10178;48.034;9.800;2022-12-24T14:54:41;8.40;99.90
20035;DHT22;10178;48.034;9.800;2022-12-24T15:02:46;8.20;99.90
20035;DHT22;10178;48.034;9.800;2022-12-24T15:05:18;8.30;99.90
20035;DHT22;10178;48.034;9.800;2022-12-24T15:08:31;8.30;99.90
20035;DHT22;10178;48.034;9.800;2022-12-24T15:10:40;8.30;99.90
20035;DHT22;10178;48.034;9.800;2022-12-24T15:13:25;8.10;99.90
20035;DHT22;10178;48.034;9.800;2022-12-24T15:15:54;8.10;99.90
20035;DHT22;10178;48.034;9.800;2022-12-24T15:18:24;8.20;99.90
20035;DHT22;10178;48.034;9.800;2022-12-24T15:20:53;8.20;99.90
20035;DHT22;10178;48.034;9.800;2022-12-24T15:23:25;8.10;99.90
20035;DHT22;10178;48.034;9.800;2022-12-24T15:25:50;8.20;99.90
20035;DHT22;10178;48.034;9.800;2022-12-24T15:28:22;8.10;99.90
20035;DHT22;10178;48.034;9.800;2022-12-24T15:30:48;8.10;99.90
20035;DHT22;10178;48.034;9.800;2022-12-24T15:33:45;8.20;99.90
20035;DHT22;10178;48.034;9.800;2022-12-24T15:36:13;8.30;99.90
20035;DHT22;10178;48.034;9.800;2022-12-24T15:38:41;8.30;99.90
20035;DHT22;10178;48.034;9.800;2022-12-24T15:43:40;8.10;99.90
20035;DHT22;10178;48.034;9.800;2022-12-24T15:46:06;8.10;99.90
20035;DHT22;10178;48.034;9.800;2022-12-24T15:48:32;8.10;99.90
20035;DHT22;10178;48.034;9.800;2022-12-24T15:51:00;8.10;99.90
20035;DHT22;10178;48.034;9.800;2022-12-24T15:53:28;8.10;99.90
20035;DHT22;10178;48.034;9.800;2022-12-24T15:58:30;8.20;99.90
20035;DHT22;10178;48.034;9.800;2022-12-24T16:01:26;8.30;99.90
20035;DHT22;10178;48.034;9.800;2022-12-24T16:06:19;8.10;99.90
20035;DHT22;10178;48.034;9.800;2022-12-24T16:08:45;8.20;99.90
20035;DHT22;10178;48.034;9.800;2022-12-24T16:11:16;8.30;99.90
20035;DHT22;10178;48.034;9.800;2022-12-24T16:16:16;8.40;99.90
20035;DHT22;10178;48.034;9.800;2022-12-24T16:18:58;8.50;99.90
20035;DHT22;10178;48.034;9.800;2022-12-24T16:21:25;8.60;99.90
20035;DHT22;10178;48.034;9.800;2022-12-24T16:23:55;8.70;99.90
20035;DHT22;10178;48.034;9.800;2022-12-24T16:26:21;8.70;99.90
20035;DHT22;10178;48.034;9.800;2022-12-24T16:28:47;8.70;99.90
20035;DHT22;10178;48.034;9.800;2022-12-24T16:31:36;8.60;99.90
20035;DHT22;10178;48.034;9.800;2022-12-24T16:34:02;8.40;99.90
20035;DHT22;10178;48.034;9.800;2022-12-24T16:36:29;8.30;99.90
20035;DHT22;10178;48.034;9.800;2022-12-24T16:38:58;8.00;99.90
20035;DHT22;10178;48.034;9.800;2022-12-24T16:41:43;8.00;99.90
20035;DHT22;10178;48.034;9.800;2022-12-24T16:44:27;7.90;99.90
20035;DHT22;10178;48.034;9.800;2022-12-24T16:46:53;7.80;99.90
20035;DHT22;10178;48.034;9.800;2022-12-24T16:49:20;7.80;99.90
20035;DHT22;10178;48.034;9.800;2022-12-24T16:51:46;7.80;99.90
20035;DHT22;10178;48.034;9.800;2022-12-24T16:54:12;7.80;99.90
20035;DHT22;10178;48.034;9.800;2022-12-24T16:56:39;7.80;99.90
20035;DHT22;10178;48.034;9.800;2022-12-24T16:59:05;7.90;99.90
20035;DHT22;10178;48.034;9.800;2022-12-24T17:01:30;7.90;99.90
20035;DHT22;10178;48.034;9.800;2022-12-24T17:03:56;7.90;99.90
20035;DHT22;10178;48.034;9.800;2022-12-24T17:06:21;8.00;99.90
20035;DHT22;10178;48.034;9.800;2022-12-24T17:08:48;8.10;99.90
20035;DHT22;10178;48.034;9.800;2022-12-24T17:11:13;7.90;99.90
20035;DHT22;10178;48.034;9.800;2022-12-24T17:13:39;7.90;99.90
20035;DHT22;10178;48.034;9.800;2022-12-24T17:16:05;7.90;99.90
20035;DHT22;10178;48.034;9.800;2022-12-24T17:18:31;7.90;99.90
20035;DHT22;10178;48.034;9.800;2022-12-24T17:20:58;8.00;99.90
20035;DHT22;10178;48.034;9.800;2022-12-24T17:23:24;7.90;99.90
20035;DHT22;10178;48.034;9.800;2022-12-24T17:25:50;8.00;99.90
20035;DHT22;10178;48.034;9.800;2022-12-24T17:28:16;7.90;99.90
20035;DHT22;10178;48.034;9.800;2022-12-24T17:30:41;7.80;99.90
20035;DHT22;10178;48.034;9.800;2022-12-24T17:33:07;7.90;99.90
20035;DHT22;10178;48.034;9.800;2022-12-24T17:35:32;7.90;99.90
20035;DHT22;10178;48.034;9.800;2022-12-24T17:37:58;7.90;99.90
20035;DHT22;10178;48.034;9.800;2022-12-24T17:40:23;7.90;99.90
20035;DHT22;10178;48.034;9.800;2022-12-24T17:42:49;7.90;99.90
20035;DHT22;10178;48.034;9.800;2022-12-24T17:45:15;7.90;99.90
20035;DHT22;10178;48.034;9.800;2022-12-24T17:47:40;7.80;99.90
20035;DHT22;10178;48.034;9.800;2022-12-24T17:50:06;7.80;99.90
20035;DHT22;10178;48.034;9.800;2022-12-24T17:52:32;7.80;99.90
20035;DHT22;10178;48.034;9.800;2022-12-24T17:54:59;7.70;99.90
20035;DHT22;10178;48.034;9.800;2022-12-24T17:57:24;7.70;99.90
20035;DHT22;10178;48.034;9.800;2022-12-24T17:59:50;7.70;99.90
20035;DHT22;10178;48.034;9.800;2022-12-24T18:02:16;7.70;99.90
20035;DHT22;10178;48.034;9.800;2022-12-24T18:04:42;7.70;99.90
20035;DHT22;10178;48.034;9.800;2022-12-24T18:07:07;7.70;99.90
20035;DHT22;10178;48.034;9.800;2022-12-24T18:09:33;7.70;99.90
20035;DHT22;10178;48.034;9.800;2022-12-24T18:11:59;7.60;99.90
20035;DHT22;10178;48.034;9.800;2022-12-24T18:14:25;7.60;99.90
20035;DHT22;10178;48.034;9.800;2022-12-24T18:16:51;7.60;99.90
20035;DHT22;10178;48.034;9.800;2022-12-24T18:19:16;7.80;99.90